Kyoriki — JD3642 — position and weather

sailwx.info

Track history (hours):
 
Tides and Currents Weather Stations Pressure Air Temp Water Temp Dewpoint Dewpoint Depression Visibility Wind Speed Wind Dir Waves Ship Positions

Kyoriki

Last reported at 2018-Jul-16 12:18 UTC. Time now 2018-Jul-22 00:54 UTC.
Position N 33°28' E 134°59'.

Length 75 m; draft 4.5 m.

Type: Cargo ship. MMSI: 431005151.

Date/timePositionNaut miles runAvg speedWind from/ knotsBaromVisibWave heightAir tempDewpointWater temp
2018-Jul-16 12:18N 33°28' E 134°59'  
2018-Jul-09 18:20N 34°37' E 134°57'411.8
2018-Jul-09 17:59N 34°37' E 135°02'5 9.8
2018-Jul-09 17:30N 34°32' E 135°05'612.4
2018-Jul-09 17:00N 34°26' E 135°03'612.3
2018-Jul-09 16:31N 34°21' E 135°00'611.0
2018-Jul-09 16:01N 34°15' E 134°59'611.1
2018-Jul-09 15:30N 34°10' E 134°60'611.0
2018-Jul-09 15:00N 34°04' E 135°01'611.6
2018-Jul-09 14:30N 33°59' E 135°01'611.4
2018-Jul-09 14:00N 33°53' E 135°02'  
Track history (hours):
 
Tides and Currents Weather Stations Pressure Air Temp Water Temp Dewpoint Dewpoint Depression Visibility Wind Speed Wind Dir Waves Ship Positions

Kyoriki

Last reported at 2018-Jul-16 12:18 UTC. Time now 2018-Jul-22 00:54 UTC.
Position N 33°28' E 134°59'.

Length 75 m; draft 4.5 m.

Type: Cargo ship. MMSI: 431005151.

Date/timePositionNaut miles runAvg speedWind from/ knotsBaromVisibWave heightAir tempDewpointWater temp
2018-Jul-16 12:18N 33°28' E 134°59'  
2018-Jul-09 18:20N 34°37' E 134°57'411.8
2018-Jul-09 17:59N 34°37' E 135°02'5 9.8
2018-Jul-09 17:30N 34°32' E 135°05'612.4
2018-Jul-09 17:00N 34°26' E 135°03'612.3
2018-Jul-09 16:31N 34°21' E 135°00'611.0
2018-Jul-09 16:01N 34°15' E 134°59'611.1
2018-Jul-09 15:30N 34°10' E 134°60'611.0
2018-Jul-09 15:00N 34°04' E 135°01'611.6
2018-Jul-09 14:30N 33°59' E 135°01'611.4
2018-Jul-09 14:00N 33°53' E 135°02'  

Dump ship's entire track history